sensor_id;sensor_type;location;lat;lon;timestamp;P1;durP1;ratioP1;P2;durP2;ratioP2
24751;SDS011;27246;52.376;4.628;2023-02-15T00:02:50;69.15;;;54.13;;
24751;SDS011;27246;52.376;4.628;2023-02-15T00:07:52;70.95;;;54.53;;
24751;SDS011;27246;52.376;4.628;2023-02-15T00:12:53;72.28;;;53.38;;
24751;SDS011;27246;52.376;4.628;2023-02-15T00:17:56;67.47;;;50.70;;
24751;SDS011;27246;52.376;4.628;2023-02-15T00:22:58;61.83;;;47.47;;
24751;SDS011;27246;52.376;4.628;2023-02-15T00:28:01;60.88;;;47.53;;
24751;SDS011;27246;52.376;4.628;2023-02-15T00:33:02;61.08;;;49.17;;
24751;SDS011;27246;52.376;4.628;2023-02-15T00:38:04;64.05;;;47.85;;
24751;SDS011;27246;52.376;4.628;2023-02-15T00:43:05;64.20;;;48.30;;
24751;SDS011;27246;52.376;4.628;2023-02-15T00:48:07;62.78;;;47.30;;
24751;SDS011;27246;52.376;4.628;2023-02-15T00:53:09;59.55;;;46.67;;
24751;SDS011;27246;52.376;4.628;2023-02-15T00:58:11;64.68;;;48.58;;
24751;SDS011;27246;52.376;4.628;2023-02-15T01:03:15;63.92;;;49.15;;
24751;SDS011;27246;52.376;4.628;2023-02-15T01:08:17;66.20;;;47.03;;
24751;SDS011;27246;52.376;4.628;2023-02-15T01:13:19;62.38;;;47.67;;
24751;SDS011;27246;52.376;4.628;2023-02-15T01:18:21;63.40;;;47.47;;
24751;SDS011;27246;52.376;4.628;2023-02-15T01:23:23;57.92;;;43.70;;
24751;SDS011;27246;52.376;4.628;2023-02-15T01:28:25;58.22;;;43.58;;
24751;SDS011;27246;52.376;4.628;2023-02-15T01:33:27;60.08;;;46.55;;
24751;SDS011;27246;52.376;4.628;2023-02-15T01:38:28;58.88;;;44.00;;
24751;SDS011;27246;52.376;4.628;2023-02-15T01:43:43;56.72;;;43.17;;
24751;SDS011;27246;52.376;4.628;2023-02-15T01:48:54;58.03;;;43.42;;
24751;SDS011;27246;52.376;4.628;2023-02-15T01:54:05;56.03;;;41.33;;
24751;SDS011;27246;52.376;4.628;2023-02-15T02:09:36;53.75;;;41.40;;
24751;SDS011;27246;52.376;4.628;2023-02-15T02:14:38;53.47;;;40.85;;
24751;SDS011;27246;52.376;4.628;2023-02-15T02:30:30;54.45;;;40.70;;
24751;SDS011;27246;52.376;4.628;2023-02-15T02:41:07;54.25;;;42.55;;
24751;SDS011;27246;52.376;4.628;2023-02-15T02:46:32;56.95;;;42.15;;
24751;SDS011;27246;52.376;4.628;2023-02-15T02:51:40;51.92;;;39.40;;
24751;SDS011;27246;52.376;4.628;2023-02-15T02:56:44;55.80;;;42.15;;
24751;SDS011;27246;52.376;4.628;2023-02-15T03:01:51;53.63;;;41.92;;
24751;SDS011;27246;52.376;4.628;2023-02-15T03:07:00;53.97;;;41.57;;
24751;SDS011;27246;52.376;4.628;2023-02-15T03:12:05;52.92;;;41.72;;
24751;SDS011;27246;52.376;4.628;2023-02-15T03:17:12;50.22;;;41.38;;
24751;SDS011;27246;52.376;4.628;2023-02-15T03:22:20;49.58;;;39.90;;
24751;SDS011;27246;52.376;4.628;2023-02-15T03:27:31;50.17;;;38.00;;
24751;SDS011;27246;52.376;4.628;2023-02-15T03:32:36;47.58;;;37.22;;
24751;SDS011;27246;52.376;4.628;2023-02-15T03:37:41;52.53;;;40.45;;
24751;SDS011;27246;52.376;4.628;2023-02-15T03:43:07;48.63;;;39.38;;
24751;SDS011;27246;52.376;4.628;2023-02-15T03:48:17;46.35;;;36.95;;
24751;SDS011;27246;52.376;4.628;2023-02-15T03:53:20;48.83;;;37.10;;
24751;SDS011;27246;52.376;4.628;2023-02-15T03:58:23;47.70;;;37.25;;
24751;SDS011;27246;52.376;4.628;2023-02-15T04:03:57;46.75;;;37.53;;
24751;SDS011;27246;52.376;4.628;2023-02-15T04:09:04;46.92;;;36.70;;
24751;SDS011;27246;52.376;4.628;2023-02-15T04:14:24;44.15;;;35.70;;
24751;SDS011;27246;52.376;4.628;2023-02-15T04:19:45;45.78;;;35.45;;
24751;SDS011;27246;52.376;4.628;2023-02-15T04:25:05;44.55;;;34.55;;
24751;SDS011;27246;52.376;4.628;2023-02-15T04:30:17;43.85;;;33.95;;
24751;SDS011;27246;52.376;4.628;2023-02-15T04:35:20;43.95;;;35.50;;
24751;SDS011;27246;52.376;4.628;2023-02-15T04:40:21;43.20;;;33.50;;
24751;SDS011;27246;52.376;4.628;2023-02-15T04:45:23;44.20;;;34.25;;
24751;SDS011;27246;52.376;4.628;2023-02-15T04:50:25;42.00;;;31.98;;
24751;SDS011;27246;52.376;4.628;2023-02-15T04:55:26;41.17;;;32.65;;
24751;SDS011;27246;52.376;4.628;2023-02-15T05:00:28;45.05;;;32.83;;
24751;SDS011;27246;52.376;4.628;2023-02-15T05:05:30;43.22;;;31.50;;
24751;SDS011;27246;52.376;4.628;2023-02-15T05:10:31;39.67;;;31.08;;
24751;SDS011;27246;52.376;4.628;2023-02-15T05:15:33;41.38;;;31.13;;
24751;SDS011;27246;52.376;4.628;2023-02-15T05:20:35;39.63;;;30.23;;
24751;SDS011;27246;52.376;4.628;2023-02-15T05:25:37;40.53;;;31.02;;
24751;SDS011;27246;52.376;4.628;2023-02-15T05:35:59;44.13;;;31.73;;
24751;SDS011;27246;52.376;4.628;2023-02-15T05:41:03;37.42;;;29.38;;
24751;SDS011;27246;52.376;4.628;2023-02-15T05:46:05;40.67;;;29.63;;
24751;SDS011;27246;52.376;4.628;2023-02-15T05:51:08;40.30;;;30.63;;
24751;SDS011;27246;52.376;4.628;2023-02-15T05:56:17;33.75;;;27.20;;
24751;SDS011;27246;52.376;4.628;2023-02-15T06:01:18;41.00;;;30.27;;
24751;SDS011;27246;52.376;4.628;2023-02-15T06:06:23;39.22;;;29.45;;
24751;SDS011;27246;52.376;4.628;2023-02-15T06:11:24;40.28;;;29.98;;
24751;SDS011;27246;52.376;4.628;2023-02-15T06:16:26;38.05;;;29.55;;
24751;SDS011;27246;52.376;4.628;2023-02-15T06:21:28;35.33;;;28.95;;
24751;SDS011;27246;52.376;4.628;2023-02-15T06:26:31;38.42;;;28.50;;
24751;SDS011;27246;52.376;4.628;2023-02-15T06:31:32;36.50;;;28.77;;
24751;SDS011;27246;52.376;4.628;2023-02-15T06:36:34;39.15;;;29.42;;
24751;SDS011;27246;52.376;4.628;2023-02-15T06:41:36;36.05;;;28.60;;
24751;SDS011;27246;52.376;4.628;2023-02-15T06:46:38;34.78;;;27.45;;
24751;SDS011;27246;52.376;4.628;2023-02-15T06:51:40;37.28;;;27.50;;
24751;SDS011;27246;52.376;4.628;2023-02-15T06:56:41;38.72;;;26.85;;
24751;SDS011;27246;52.376;4.628;2023-02-15T07:01:44;37.47;;;27.17;;
24751;SDS011;27246;52.376;4.628;2023-02-15T07:06:46;36.92;;;28.85;;
24751;SDS011;27246;52.376;4.628;2023-02-15T07:11:48;37.00;;;27.70;;
24751;SDS011;27246;52.376;4.628;2023-02-15T07:22:30;37.15;;;28.20;;
24751;SDS011;27246;52.376;4.628;2023-02-15T07:27:32;37.88;;;28.15;;
24751;SDS011;27246;52.376;4.628;2023-02-15T07:32:33;37.15;;;28.13;;
24751;SDS011;27246;52.376;4.628;2023-02-15T07:37:35;36.15;;;27.10;;
24751;SDS011;27246;52.376;4.628;2023-02-15T07:42:37;38.40;;;27.42;;
24751;SDS011;27246;52.376;4.628;2023-02-15T07:47:38;44.10;;;31.17;;
24751;SDS011;27246;52.376;4.628;2023-02-15T07:52:40;37.65;;;29.05;;
24751;SDS011;27246;52.376;4.628;2023-02-15T07:57:45;36.38;;;28.02;;
24751;SDS011;27246;52.376;4.628;2023-02-15T08:02:49;38.75;;;29.63;;
24751;SDS011;27246;52.376;4.628;2023-02-15T08:08:14;39.67;;;29.20;;
24751;SDS011;27246;52.376;4.628;2023-02-15T08:13:31;38.60;;;28.17;;
24751;SDS011;27246;52.376;4.628;2023-02-15T08:18:32;36.50;;;28.23;;
24751;SDS011;27246;52.376;4.628;2023-02-15T08:23:35;41.50;;;28.88;;
24751;SDS011;27246;52.376;4.628;2023-02-15T08:28:37;40.78;;;30.08;;
24751;SDS011;27246;52.376;4.628;2023-02-15T08:33:40;38.75;;;29.23;;
24751;SDS011;27246;52.376;4.628;2023-02-15T08:38:43;42.15;;;31.58;;
24751;SDS011;27246;52.376;4.628;2023-02-15T08:43:46;39.55;;;29.75;;
24751;SDS011;27246;52.376;4.628;2023-02-15T08:48:50;38.55;;;30.55;;
24751;SDS011;27246;52.376;4.628;2023-02-15T08:53:53;40.10;;;32.42;;
24751;SDS011;27246;52.376;4.628;2023-02-15T08:58:56;38.65;;;30.88;;
24751;SDS011;27246;52.376;4.628;2023-02-15T09:03:59;43.03;;;32.35;;
24751;SDS011;27246;52.376;4.628;2023-02-15T09:09:03;42.15;;;32.58;;
24751;SDS011;27246;52.376;4.628;2023-02-15T09:14:06;45.22;;;33.92;;
24751;SDS011;27246;52.376;4.628;2023-02-15T09:19:10;44.95;;;33.92;;
24751;SDS011;27246;52.376;4.628;2023-02-15T09:24:13;47.47;;;34.88;;
24751;SDS011;27246;52.376;4.628;2023-02-15T09:29:17;44.08;;;34.17;;
24751;SDS011;27246;52.376;4.628;2023-02-15T09:34:20;48.42;;;34.22;;
24751;SDS011;27246;52.376;4.628;2023-02-15T09:39:24;43.22;;;34.08;;
24751;SDS011;27246;52.376;4.628;2023-02-15T09:54:59;47.83;;;36.75;;
24751;SDS011;27246;52.376;4.628;2023-02-15T10:05:48;49.80;;;37.58;;
24751;SDS011;27246;52.376;4.628;2023-02-15T10:11:20;44.90;;;34.33;;
24751;SDS011;27246;52.376;4.628;2023-02-15T10:27:47;51.97;;;38.22;;
24751;SDS011;27246;52.376;4.628;2023-02-15T10:32:53;49.10;;;36.83;;
24751;SDS011;27246;52.376;4.628;2023-02-15T10:59:16;51.83;;;38.33;;
24751;SDS011;27246;52.376;4.628;2023-02-15T11:09:49;56.47;;;40.28;;
24751;SDS011;27246;52.376;4.628;2023-02-15T11:15:20;56.30;;;41.47;;
24751;SDS011;27246;52.376;4.628;2023-02-15T11:20:37;57.22;;;43.22;;
24751;SDS011;27246;52.376;4.628;2023-02-15T11:25:57;52.17;;;41.08;;
24751;SDS011;27246;52.376;4.628;2023-02-15T11:31:02;53.63;;;40.88;;
24751;SDS011;27246;52.376;4.628;2023-02-15T11:36:33;55.22;;;40.22;;
24751;SDS011;27246;52.376;4.628;2023-02-15T11:41:50;53.70;;;40.03;;
24751;SDS011;27246;52.376;4.628;2023-02-15T11:46:55;60.47;;;42.25;;
24751;SDS011;27246;52.376;4.628;2023-02-15T11:51:57;54.20;;;41.13;;
24751;SDS011;27246;52.376;4.628;2023-02-15T11:57:03;54.10;;;40.78;;
24751;SDS011;27246;52.376;4.628;2023-02-15T12:02:20;58.58;;;41.70;;
24751;SDS011;27246;52.376;4.628;2023-02-15T12:07:24;52.42;;;39.40;;
24751;SDS011;27246;52.376;4.628;2023-02-15T12:12:31;56.47;;;41.50;;
24751;SDS011;27246;52.376;4.628;2023-02-15T12:17:35;52.78;;;40.85;;
24751;SDS011;27246;52.376;4.628;2023-02-15T12:23:00;55.83;;;40.55;;
24751;SDS011;27246;52.376;4.628;2023-02-15T12:33:27;53.92;;;41.63;;
24751;SDS011;27246;52.376;4.628;2023-02-15T12:38:32;56.15;;;40.65;;
24751;SDS011;27246;52.376;4.628;2023-02-15T12:43:35;56.75;;;41.53;;
24751;SDS011;27246;52.376;4.628;2023-02-15T12:48:38;55.13;;;41.75;;
24751;SDS011;27246;52.376;4.628;2023-02-15T12:53:41;61.00;;;42.88;;
24751;SDS011;27246;52.376;4.628;2023-02-15T12:58:45;56.78;;;41.15;;
24751;SDS011;27246;52.376;4.628;2023-02-15T13:08:55;58.88;;;44.00;;
24751;SDS011;27246;52.376;4.628;2023-02-15T13:14:14;57.35;;;40.92;;
24751;SDS011;27246;52.376;4.628;2023-02-15T13:19:22;62.87;;;41.60;;
24751;SDS011;27246;52.376;4.628;2023-02-15T13:24:37;58.70;;;40.20;;
24751;SDS011;27246;52.376;4.628;2023-02-15T13:29:50;55.50;;;39.60;;
24751;SDS011;27246;52.376;4.628;2023-02-15T13:34:54;60.00;;;40.92;;
24751;SDS011;27246;52.376;4.628;2023-02-15T13:40:04;63.22;;;40.47;;
24751;SDS011;27246;52.376;4.628;2023-02-15T13:56:26;57.20;;;38.03;;
24751;SDS011;27246;52.376;4.628;2023-02-15T14:01:39;60.33;;;40.63;;
24751;SDS011;27246;52.376;4.628;2023-02-15T14:18:25;55.00;;;39.45;;
24751;SDS011;27246;52.376;4.628;2023-02-15T14:23:08;55.58;;;40.58;;
24751;SDS011;27246;52.376;4.628;2023-02-15T14:28:20;55.10;;;41.72;;
24751;SDS011;27246;52.376;4.628;2023-02-15T14:33:36;60.97;;;42.00;;
24751;SDS011;27246;52.376;4.628;2023-02-15T14:44:04;58.45;;;41.00;;
24751;SDS011;27246;52.376;4.628;2023-02-15T14:49:20;60.90;;;40.25;;
24751;SDS011;27246;52.376;4.628;2023-02-15T14:59:27;51.10;;;34.63;;
24751;SDS011;27246;52.376;4.628;2023-02-15T15:04:41;54.10;;;35.60;;
24751;SDS011;27246;52.376;4.628;2023-02-15T15:09:46;46.03;;;30.42;;
24751;SDS011;27246;52.376;4.628;2023-02-15T15:15:01;42.90;;;28.65;;
24751;SDS011;27246;52.376;4.628;2023-02-15T15:20:12;40.28;;;26.70;;
24751;SDS011;27246;52.376;4.628;2023-02-15T15:25:56;39.50;;;26.45;;
24751;SDS011;27246;52.376;4.628;2023-02-15T15:31:26;51.58;;;34.58;;
24751;SDS011;27246;52.376;4.628;2023-02-15T15:36:46;56.95;;;38.15;;
24751;SDS011;27246;52.376;4.628;2023-02-15T15:48:01;53.92;;;38.67;;
24751;SDS011;27246;52.376;4.628;2023-02-15T15:53:21;56.28;;;37.58;;
24751;SDS011;27246;52.376;4.628;2023-02-15T15:58:25;53.15;;;38.13;;
24751;SDS011;27246;52.376;4.628;2023-02-15T16:03:28;57.40;;;39.60;;
24751;SDS011;27246;52.376;4.628;2023-02-15T16:08:34;53.08;;;38.28;;
24751;SDS011;27246;52.376;4.628;2023-02-15T16:13:39;53.25;;;36.85;;
24751;SDS011;27246;52.376;4.628;2023-02-15T16:18:50;54.53;;;39.25;;
24751;SDS011;27246;52.376;4.628;2023-02-15T16:29:27;52.10;;;37.22;;
24751;SDS011;27246;52.376;4.628;2023-02-15T16:34:30;50.80;;;37.63;;
24751;SDS011;27246;52.376;4.628;2023-02-15T16:39:33;50.60;;;38.63;;
24751;SDS011;27246;52.376;4.628;2023-02-15T16:44:43;52.45;;;38.55;;
24751;SDS011;27246;52.376;4.628;2023-02-15T16:49:47;47.60;;;35.65;;
24751;SDS011;27246;52.376;4.628;2023-02-15T16:54:58;54.33;;;38.97;;
24751;SDS011;27246;52.376;4.628;2023-02-15T17:00:07;57.08;;;39.30;;
24751;SDS011;27246;52.376;4.628;2023-02-15T17:05:18;56.00;;;39.47;;
24751;SDS011;27246;52.376;4.628;2023-02-15T17:10:25;52.67;;;37.38;;
24751;SDS011;27246;52.376;4.628;2023-02-15T17:15:33;56.65;;;40.35;;
24751;SDS011;27246;52.376;4.628;2023-02-15T17:20:37;51.53;;;38.83;;
24751;SDS011;27246;52.376;4.628;2023-02-15T17:25:43;53.53;;;37.80;;
24751;SDS011;27246;52.376;4.628;2023-02-15T17:30:44;51.47;;;38.17;;
24751;SDS011;27246;52.376;4.628;2023-02-15T17:41:10;50.08;;;37.20;;
24751;SDS011;27246;52.376;4.628;2023-02-15T17:46:11;54.55;;;38.70;;
24751;SDS011;27246;52.376;4.628;2023-02-15T17:51:14;54.88;;;39.13;;
24751;SDS011;27246;52.376;4.628;2023-02-15T17:56:16;56.50;;;39.60;;
24751;SDS011;27246;52.376;4.628;2023-02-15T18:01:18;56.38;;;38.60;;
24751;SDS011;27246;52.376;4.628;2023-02-15T18:06:41;52.63;;;39.58;;
24751;SDS011;27246;52.376;4.628;2023-02-15T18:22:38;50.55;;;38.35;;
24751;SDS011;27246;52.376;4.628;2023-02-15T18:27:40;55.58;;;39.65;;
24751;SDS011;27246;52.376;4.628;2023-02-15T18:32:42;54.53;;;40.97;;
24751;SDS011;27246;52.376;4.628;2023-02-15T18:37:46;53.72;;;39.25;;
24751;SDS011;27246;52.376;4.628;2023-02-15T18:42:48;54.03;;;40.40;;
24751;SDS011;27246;52.376;4.628;2023-02-15T18:47:50;53.53;;;39.00;;
24751;SDS011;27246;52.376;4.628;2023-02-15T18:52:52;49.38;;;38.58;;
24751;SDS011;27246;52.376;4.628;2023-02-15T18:57:55;56.85;;;41.47;;
24751;SDS011;27246;52.376;4.628;2023-02-15T19:02:57;53.30;;;39.92;;
24751;SDS011;27246;52.376;4.628;2023-02-15T19:08:00;57.20;;;39.17;;
24751;SDS011;27246;52.376;4.628;2023-02-15T19:13:02;53.40;;;39.83;;
24751;SDS011;27246;52.376;4.628;2023-02-15T19:18:05;56.13;;;38.65;;
24751;SDS011;27246;52.376;4.628;2023-02-15T19:23:07;52.03;;;38.67;;
24751;SDS011;27246;52.376;4.628;2023-02-15T19:28:17;51.03;;;37.63;;
24751;SDS011;27246;52.376;4.628;2023-02-15T19:33:22;49.95;;;37.65;;
24751;SDS011;27246;52.376;4.628;2023-02-15T19:38:25;58.22;;;39.97;;
24751;SDS011;27246;52.376;4.628;2023-02-15T19:43:30;53.45;;;42.35;;
24751;SDS011;27246;52.376;4.628;2023-02-15T19:48:33;49.60;;;38.53;;
24751;SDS011;27246;52.376;4.628;2023-02-15T19:53:35;55.78;;;40.58;;
24751;SDS011;27246;52.376;4.628;2023-02-15T19:58:37;55.15;;;38.60;;
24751;SDS011;27246;52.376;4.628;2023-02-15T20:03:39;51.60;;;37.08;;
24751;SDS011;27246;52.376;4.628;2023-02-15T20:08:41;52.97;;;38.65;;
24751;SDS011;27246;52.376;4.628;2023-02-15T20:13:43;51.25;;;39.67;;
24751;SDS011;27246;52.376;4.628;2023-02-15T20:18:45;50.75;;;38.70;;
24751;SDS011;27246;52.376;4.628;2023-02-15T20:23:47;51.35;;;38.97;;
24751;SDS011;27246;52.376;4.628;2023-02-15T20:28:49;53.15;;;37.75;;
24751;SDS011;27246;52.376;4.628;2023-02-15T20:33:51;51.63;;;38.55;;
24751;SDS011;27246;52.376;4.628;2023-02-15T20:38:59;54.47;;;40.17;;
24751;SDS011;27246;52.376;4.628;2023-02-15T20:49:20;50.33;;;36.67;;
24751;SDS011;27246;52.376;4.628;2023-02-15T20:54:27;48.70;;;37.28;;
24751;SDS011;27246;52.376;4.628;2023-02-15T20:59:32;48.33;;;35.78;;
24751;SDS011;27246;52.376;4.628;2023-02-15T21:04:34;47.33;;;35.85;;
24751;SDS011;27246;52.376;4.628;2023-02-15T21:09:36;42.97;;;34.03;;
24751;SDS011;27246;52.376;4.628;2023-02-15T21:14:38;47.92;;;36.17;;
24751;SDS011;27246;52.376;4.628;2023-02-15T21:19:39;44.72;;;34.00;;
24751;SDS011;27246;52.376;4.628;2023-02-15T21:24:44;49.75;;;36.13;;
24751;SDS011;27246;52.376;4.628;2023-02-15T21:29:51;44.03;;;33.55;;
24751;SDS011;27246;52.376;4.628;2023-02-15T21:34:52;43.50;;;32.90;;
24751;SDS011;27246;52.376;4.628;2023-02-15T21:39:54;48.17;;;35.42;;
24751;SDS011;27246;52.376;4.628;2023-02-15T21:44:57;44.78;;;34.22;;
24751;SDS011;27246;52.376;4.628;2023-02-15T21:55:40;45.47;;;33.38;;
24751;SDS011;27246;52.376;4.628;2023-02-15T22:00:42;41.88;;;31.95;;
24751;SDS011;27246;52.376;4.628;2023-02-15T22:05:44;43.42;;;32.63;;
24751;SDS011;27246;52.376;4.628;2023-02-15T22:10:45;42.67;;;32.63;;
24751;SDS011;27246;52.376;4.628;2023-02-15T22:15:48;47.67;;;33.53;;
24751;SDS011;27246;52.376;4.628;2023-02-15T22:20:50;41.20;;;31.63;;
24751;SDS011;27246;52.376;4.628;2023-02-15T22:25:56;43.70;;;31.02;;
24751;SDS011;27246;52.376;4.628;2023-02-15T22:31:03;41.15;;;32.58;;
24751;SDS011;27246;52.376;4.628;2023-02-15T22:36:14;41.97;;;32.35;;
24751;SDS011;27246;52.376;4.628;2023-02-15T22:41:23;42.78;;;32.08;;
24751;SDS011;27246;52.376;4.628;2023-02-15T22:46:29;43.42;;;31.30;;
24751;SDS011;27246;52.376;4.628;2023-02-15T22:51:30;38.50;;;29.92;;
24751;SDS011;27246;52.376;4.628;2023-02-15T22:56:39;38.20;;;29.38;;
24751;SDS011;27246;52.376;4.628;2023-02-15T23:01:44;40.63;;;29.08;;
24751;SDS011;27246;52.376;4.628;2023-02-15T23:06:47;35.63;;;27.33;;
24751;SDS011;27246;52.376;4.628;2023-02-15T23:11:49;34.88;;;27.45;;
24751;SDS011;27246;52.376;4.628;2023-02-15T23:16:52;39.53;;;27.92;;
24751;SDS011;27246;52.376;4.628;2023-02-15T23:21:54;32.88;;;27.45;;
24751;SDS011;27246;52.376;4.628;2023-02-15T23:26:56;34.60;;;26.70;;
24751;SDS011;27246;52.376;4.628;2023-02-15T23:32:19;34.97;;;27.20;;
24751;SDS011;27246;52.376;4.628;2023-02-15T23:37:22;36.50;;;26.27;;
24751;SDS011;27246;52.376;4.628;2023-02-15T23:42:25;36.75;;;28.05;;
24751;SDS011;27246;52.376;4.628;2023-02-15T23:47:30;34.70;;;27.25;;
24751;SDS011;27246;52.376;4.628;2023-02-15T23:52:53;36.42;;;27.70;;
24751;SDS011;27246;52.376;4.628;2023-02-15T23:57:56;35.65;;;27.05;;
